createdAt,value
2023-03-03T00:01:55.191Z,87.40
2023-03-03T00:04:22.056Z,87.40
2023-03-03T00:06:48.937Z,87.80
2023-03-03T00:09:15.830Z,88.00
2023-03-03T00:11:42.733Z,88.10
2023-03-03T00:14:28.138Z,88.90
2023-03-03T00:16:57.479Z,89.20
2023-03-03T00:19:24.463Z,89.30
2023-03-03T00:21:57.789Z,89.40
2023-03-03T00:24:34.714Z,89.70
2023-03-03T00:27:23.221Z,90.20
2023-03-03T00:29:57.704Z,90.70
2023-03-03T00:32:43.780Z,90.70
2023-03-03T00:35:35.738Z,90.60
2023-03-03T00:38:19.401Z,90.80
2023-03-03T00:40:48.326Z,90.80
2023-03-03T00:43:23.938Z,91.00
2023-03-03T00:46:00.731Z,91.10
2023-03-03T00:48:51.264Z,91.40
2023-03-03T00:51:34.244Z,91.60
2023-03-03T00:54:01.318Z,92.10
2023-03-03T00:56:28.297Z,92.90
2023-03-03T00:58:55.188Z,93.50
2023-03-03T01:01:22.587Z,93.50
2023-03-03T01:03:49.650Z,93.70
2023-03-03T01:06:16.863Z,93.60
2023-03-03T01:08:43.806Z,93.50
2023-03-03T01:11:28.441Z,93.80
2023-03-03T01:13:56.954Z,94.30
2023-03-03T01:16:24.108Z,94.80
2023-03-03T01:18:51.037Z,94.90
2023-03-03T01:21:18.006Z,95.20
2023-03-03T01:23:44.916Z,95.60
2023-03-03T01:26:11.792Z,96.00
2023-03-03T01:28:38.696Z,96.40
2023-03-03T01:31:06.794Z,96.50
2023-03-03T01:33:36.275Z,96.70
2023-03-03T01:36:04.320Z,96.60
2023-03-03T01:38:31.261Z,96.40
2023-03-03T01:41:00.189Z,96.80
2023-03-03T01:43:32.846Z,96.90
2023-03-03T01:45:59.603Z,97.00
2023-03-03T01:48:44.576Z,96.80
2023-03-03T01:51:30.721Z,96.90
2023-03-03T01:54:14.678Z,97.10
2023-03-03T01:56:44.132Z,97.40
2023-03-03T01:59:29.067Z,97.70
2023-03-03T02:01:56.082Z,97.90
2023-03-03T02:04:23.481Z,98.10
2023-03-03T02:07:01.785Z,98.20
2023-03-03T02:10:07.325Z,98.50
2023-03-03T02:12:48.153Z,98.70
2023-03-03T02:15:25.459Z,99.20
2023-03-03T02:18:09.418Z,99.30
2023-03-03T02:21:02.185Z,99.40
2023-03-03T02:23:45.826Z,99.30
2023-03-03T02:26:17.409Z,99.40
2023-03-03T02:28:44.678Z,99.50
2023-03-03T02:31:18.670Z,99.60
2023-03-03T02:33:51.338Z,99.60
2023-03-03T02:36:33.151Z,99.60
2023-03-03T02:39:27.508Z,99.70
2023-03-03T02:42:16.481Z,99.60
2023-03-03T02:44:43.492Z,99.50
2023-03-03T02:47:10.570Z,99.50
2023-03-03T02:49:38.063Z,99.40
2023-03-03T02:52:10.524Z,99.60
2023-03-03T02:54:38.801Z,99.40
2023-03-03T02:57:07.127Z,99.50
2023-03-03T02:59:34.074Z,99.60
2023-03-03T03:02:01.013Z,99.30
2023-03-03T03:04:28.382Z,99.20
2023-03-03T03:06:56.240Z,99.50
2023-03-03T03:09:25.451Z,99.70
2023-03-03T03:11:53.008Z,99.80
2023-03-03T03:14:19.989Z,99.90
2023-03-03T03:16:46.902Z,99.90
2023-03-03T03:19:14.030Z,99.90
2023-03-03T03:21:41.081Z,99.90
2023-03-03T03:24:08.108Z,99.90
2023-03-03T03:26:35.025Z,99.90
2023-03-03T03:29:01.957Z,99.90
2023-03-03T03:31:28.943Z,99.90
2023-03-03T03:33:55.819Z,99.90
2023-03-03T03:36:22.865Z,99.90
2023-03-03T03:38:49.810Z,99.90
2023-03-03T03:41:16.767Z,99.90
2023-03-03T03:43:43.630Z,99.90
2023-03-03T03:46:10.637Z,99.90
2023-03-03T03:48:37.682Z,99.90
2023-03-03T03:51:05.401Z,99.90
2023-03-03T03:53:32.692Z,99.90
2023-03-03T03:55:59.678Z,99.90
2023-03-03T03:58:26.780Z,99.90
2023-03-03T04:00:54.395Z,99.90
2023-03-03T04:03:21.789Z,99.90
2023-03-03T04:05:50.948Z,99.90
2023-03-03T04:08:17.916Z,99.90
2023-03-03T04:10:44.768Z,99.90
2023-03-03T04:13:11.660Z,99.90
2023-03-03T04:15:38.603Z,99.90
2023-03-03T04:18:06.086Z,99.90
2023-03-03T04:20:33.114Z,99.90
2023-03-03T04:23:00.151Z,99.90
2023-03-03T04:25:27.270Z,99.90
2023-03-03T04:27:54.352Z,99.90
2023-03-03T04:30:21.859Z,99.90
2023-03-03T04:32:49.524Z,99.90
2023-03-03T04:35:16.490Z,99.90
2023-03-03T04:37:43.515Z,99.90
2023-03-03T04:40:11.762Z,99.90
2023-03-03T04:42:38.868Z,99.90
2023-03-03T04:45:06.957Z,99.90
2023-03-03T04:47:34.034Z,99.90
2023-03-03T04:50:01.012Z,99.90
2023-03-03T04:52:28.410Z,99.90
2023-03-03T04:54:55.673Z,99.90
2023-03-03T04:57:22.685Z,99.90
2023-03-03T04:59:49.794Z,99.90
2023-03-03T05:02:17.324Z,99.90
2023-03-03T05:04:44.352Z,99.90
2023-03-03T05:07:11.296Z,99.90
2023-03-03T05:09:38.299Z,99.90
2023-03-03T05:12:05.951Z,99.90
2023-03-03T05:14:32.938Z,99.90
2023-03-03T05:17:00.015Z,99.90
2023-03-03T05:19:27.401Z,99.90
2023-03-03T05:21:54.763Z,99.90
2023-03-03T05:24:21.671Z,99.90
2023-03-03T05:26:49.690Z,99.90
2023-03-03T05:29:16.694Z,99.90
2023-03-03T05:31:45.573Z,99.90
2023-03-03T05:34:12.720Z,99.90
2023-03-03T05:36:39.670Z,99.90
2023-03-03T05:39:06.712Z,99.90
2023-03-03T05:41:36.688Z,99.90
2023-03-03T05:44:04.048Z,99.90
2023-03-03T05:46:31.035Z,99.90
2023-03-03T05:48:57.951Z,99.90
2023-03-03T05:51:24.832Z,99.90
2023-03-03T05:53:51.678Z,99.90
2023-03-03T05:56:18.563Z,99.90
2023-03-03T05:58:46.126Z,99.90
2023-03-03T06:01:13.128Z,99.90
2023-03-03T06:03:40.028Z,99.90
2023-03-03T06:06:09.007Z,99.90
2023-03-03T06:08:35.932Z,99.90
2023-03-03T06:11:03.249Z,99.90
2023-03-03T06:13:30.285Z,99.90
2023-03-03T06:15:57.366Z,99.90
2023-03-03T06:18:24.358Z,99.90
2023-03-03T06:20:53.903Z,99.90
2023-03-03T06:23:22.351Z,99.90
2023-03-03T06:25:49.296Z,99.90
2023-03-03T06:28:16.194Z,99.90
2023-03-03T06:30:43.118Z,99.90
2023-03-03T06:33:09.999Z,99.90
2023-03-03T06:35:37.721Z,99.90
2023-03-03T06:38:04.675Z,99.90
2023-03-03T06:40:31.597Z,99.90
2023-03-03T06:42:58.433Z,99.90
2023-03-03T06:45:25.301Z,99.90
2023-03-03T06:47:52.166Z,99.90
2023-03-03T06:50:21.475Z,99.90
2023-03-03T06:52:48.686Z,99.90
2023-03-03T06:55:23.796Z,99.90
2023-03-03T06:57:50.877Z,99.90
2023-03-03T07:00:30.715Z,99.90
2023-03-03T07:03:12.508Z,99.90
2023-03-03T07:05:39.443Z,99.90
2023-03-03T07:08:32.092Z,99.90
2023-03-03T07:11:16.115Z,99.90
2023-03-03T07:13:53.576Z,99.90
2023-03-03T07:16:27.986Z,99.90
2023-03-03T07:18:54.795Z,99.90
2023-03-03T07:21:36.815Z,99.90
2023-03-03T07:24:28.745Z,99.90
2023-03-03T07:27:07.675Z,99.90
2023-03-03T07:29:35.556Z,99.90
2023-03-03T07:32:03.000Z,97.60
2023-03-03T07:34:47.727Z,95.60
2023-03-03T07:37:30.884Z,93.50
2023-03-03T07:40:00.881Z,93.00
2023-03-03T07:42:41.961Z,91.30
2023-03-03T07:45:37.654Z,86.40
2023-03-03T07:48:13.445Z,83.60
2023-03-03T07:50:41.697Z,82.20
2023-03-03T07:53:34.578Z,82.50
2023-03-03T07:56:02.131Z,80.00
2023-03-03T07:58:40.682Z,78.90
2023-03-03T08:01:43.414Z,77.40
2023-03-03T08:04:38.997Z,77.20
2023-03-03T08:07:21.333Z,75.20
2023-03-03T08:09:59.994Z,71.30
2023-03-03T08:12:47.091Z,67.40
2023-03-03T08:15:31.165Z,65.30
2023-03-03T08:18:01.690Z,65.10
2023-03-03T08:20:45.422Z,64.40
2023-03-03T08:23:16.788Z,63.70
2023-03-03T08:25:44.717Z,62.90
2023-03-03T08:28:13.898Z,61.10
2023-03-03T08:30:41.710Z,59.30
2023-03-03T08:33:09.041Z,57.80
2023-03-03T08:35:36.527Z,57.60
2023-03-03T08:38:05.028Z,56.50
2023-03-03T08:40:33.122Z,55.30
2023-03-03T08:43:00.118Z,56.20
2023-03-03T08:45:27.779Z,54.70
2023-03-03T08:47:55.447Z,53.80
2023-03-03T08:50:23.248Z,52.40
2023-03-03T08:52:50.452Z,52.30
2023-03-03T08:55:18.217Z,52.00
2023-03-03T08:57:45.174Z,51.60
2023-03-03T09:03:35.710Z,52.80
2023-03-03T09:06:02.724Z,52.30
2023-03-03T09:08:29.662Z,53.80
2023-03-03T09:10:56.609Z,53.00
2023-03-03T09:13:23.494Z,52.90
2023-03-03T09:15:50.691Z,51.20
2023-03-03T09:18:45.816Z,51.50
2023-03-03T09:21:33.050Z,50.20
2023-03-03T09:24:00.857Z,50.30
2023-03-03T09:26:39.618Z,51.00
2023-03-03T09:29:15.437Z,49.90
2023-03-03T09:31:54.831Z,48.30
2023-03-03T09:34:36.528Z,47.20
2023-03-03T09:37:37.236Z,46.50
2023-03-03T09:41:09.740Z,47.20
2023-03-03T09:44:35.565Z,46.50
2023-03-03T09:48:02.458Z,45.60
2023-03-03T09:51:13.370Z,45.40
2023-03-03T09:54:16.877Z,43.60
2023-03-03T09:57:17.449Z,42.90
2023-03-03T10:00:49.963Z,42.20
2023-03-03T10:04:12.325Z,41.90
2023-03-03T10:07:04.047Z,40.90
2023-03-03T10:10:21.210Z,40.40
2023-03-03T10:13:20.511Z,40.40
2023-03-03T10:16:34.049Z,39.80
2023-03-03T10:19:35.922Z,38.70
2023-03-03T10:22:20.403Z,35.70
2023-03-03T10:25:20.853Z,36.90
2023-03-03T10:28:06.006Z,37.40
2023-03-03T10:31:05.610Z,37.40
2023-03-03T10:34:06.174Z,37.00
2023-03-03T10:37:20.679Z,36.40
2023-03-03T10:40:22.798Z,36.40
2023-03-03T10:43:35.193Z,37.20
2023-03-03T10:46:42.004Z,36.80
2023-03-03T10:49:51.529Z,37.00
2023-03-03T10:52:51.608Z,36.90
2023-03-03T10:55:50.116Z,36.40
2023-03-03T10:58:57.986Z,36.90
2023-03-03T11:01:56.868Z,36.20
2023-03-03T11:04:51.397Z,35.30
2023-03-03T11:07:44.149Z,34.60
2023-03-03T11:10:47.976Z,35.10
2023-03-03T11:14:00.241Z,34.90
2023-03-03T11:17:11.557Z,34.20
2023-03-03T11:20:09.618Z,34.10
2023-03-03T11:23:07.572Z,33.80
2023-03-03T11:25:55.585Z,34.00
2023-03-03T11:28:58.884Z,34.00
2023-03-03T11:32:18.036Z,34.70
2023-03-03T11:35:16.645Z,34.60
2023-03-03T11:38:04.263Z,34.20
2023-03-03T11:40:58.928Z,34.80
2023-03-03T11:43:47.188Z,34.80
2023-03-03T11:46:25.266Z,35.90
2023-03-03T11:49:18.407Z,35.70
2023-03-03T11:52:53.071Z,35.20
2023-03-03T11:55:36.067Z,33.60
2023-03-03T11:58:50.630Z,33.70
2023-03-03T12:01:57.841Z,33.50
2023-03-03T12:04:57.178Z,33.50
2023-03-03T12:08:01.702Z,33.40
2023-03-03T12:11:07.692Z,33.40
2023-03-03T12:14:05.988Z,32.80
2023-03-03T12:17:11.795Z,33.00
2023-03-03T12:20:05.529Z,33.00
2023-03-03T12:22:45.854Z,32.80
2023-03-03T12:25:40.826Z,32.00
2023-03-03T12:28:27.008Z,30.50
2023-03-03T12:31:15.097Z,33.10
2023-03-03T12:33:54.865Z,33.50
2023-03-03T12:37:07.422Z,34.80
2023-03-03T12:39:47.637Z,34.30
2023-03-03T12:42:49.117Z,35.70
2023-03-03T12:46:19.606Z,34.80
2023-03-03T12:48:48.267Z,33.20
2023-03-03T12:51:28.100Z,34.30
2023-03-03T12:54:19.941Z,33.60
2023-03-03T12:57:11.037Z,34.60
2023-03-03T13:00:24.267Z,32.90
2023-03-03T13:03:21.778Z,32.20
2023-03-03T13:06:22.091Z,33.10
2023-03-03T13:09:00.863Z,33.40
2023-03-03T13:11:50.930Z,32.70
2023-03-03T13:14:47.360Z,32.30
2023-03-03T13:17:34.763Z,32.80
2023-03-03T13:20:12.837Z,32.70
2023-03-03T13:23:04.034Z,32.90
2023-03-03T13:25:57.620Z,31.60
2023-03-03T13:28:56.630Z,31.90
2023-03-03T13:31:39.297Z,33.70
2023-03-03T13:34:40.285Z,33.60
2023-03-03T13:37:24.431Z,33.70
2023-03-03T13:40:03.430Z,33.00
2023-03-03T13:42:56.085Z,34.00
2023-03-03T13:46:05.662Z,33.50
2023-03-03T13:49:18.452Z,33.90
2023-03-03T13:52:26.898Z,34.30
2023-03-03T13:55:38.878Z,35.10
2023-03-03T13:58:57.000Z,35.00
2023-03-03T14:01:50.593Z,35.20
2023-03-03T14:05:01.117Z,36.10
2023-03-03T14:07:52.122Z,35.50
2023-03-03T14:10:44.175Z,35.30
2023-03-03T14:13:49.325Z,35.00
2023-03-03T14:17:01.878Z,35.60
2023-03-03T14:19:40.599Z,36.70
2023-03-03T14:22:38.134Z,36.70
2023-03-03T14:25:09.767Z,36.20
2023-03-03T14:27:48.518Z,35.90
2023-03-03T14:30:41.837Z,35.40
2023-03-03T14:33:09.122Z,35.90
2023-03-03T14:35:42.325Z,35.40
2023-03-03T14:38:12.877Z,35.90
2023-03-03T14:40:45.902Z,36.50
2023-03-03T14:43:37.225Z,37.20
2023-03-03T14:46:31.303Z,37.80
2023-03-03T14:49:04.138Z,36.90
2023-03-03T14:51:45.284Z,37.50
2023-03-03T14:54:26.676Z,37.30
2023-03-03T14:57:12.016Z,37.70
2023-03-03T14:59:40.839Z,37.00
2023-03-03T15:02:16.693Z,37.20
2023-03-03T15:04:47.053Z,37.30
2023-03-03T15:07:37.057Z,37.40
2023-03-03T15:10:07.653Z,37.70
2023-03-03T15:12:41.837Z,36.70
2023-03-03T15:15:22.270Z,36.30
2023-03-03T15:18:05.211Z,36.30
2023-03-03T15:21:32.040Z,36.00
2023-03-03T15:24:26.394Z,36.70
2023-03-03T15:27:10.282Z,36.40
2023-03-03T15:30:37.611Z,37.00
2023-03-03T15:33:59.186Z,37.30
2023-03-03T15:37:11.599Z,37.80
2023-03-03T15:40:09.245Z,37.70
2023-03-03T15:43:32.280Z,37.80
2023-03-03T15:46:23.597Z,38.30
2023-03-03T15:49:05.379Z,38.40
2023-03-03T15:52:28.288Z,38.20
2023-03-03T15:55:58.913Z,38.10
2023-03-03T15:59:21.857Z,37.70
2023-03-03T16:02:25.147Z,38.60
2023-03-03T16:05:49.466Z,38.60
2023-03-03T16:08:43.182Z,39.40
2023-03-03T16:11:38.902Z,40.10
2023-03-03T16:14:53.841Z,40.60
2023-03-03T16:17:48.892Z,41.00
2023-03-03T16:20:51.998Z,41.70
2023-03-03T16:24:39.717Z,42.40
2023-03-03T16:27:30.454Z,43.60
2023-03-03T16:30:40.004Z,45.00
2023-03-03T16:33:55.774Z,45.60
2023-03-03T16:36:51.628Z,46.80
2023-03-03T16:39:34.361Z,48.30
2023-03-03T16:42:25.954Z,48.90
2023-03-03T16:45:32.128Z,49.50
2023-03-03T16:48:32.850Z,50.40
2023-03-03T16:51:41.332Z,51.40
2023-03-03T16:54:58.375Z,52.20
2023-03-03T16:57:57.302Z,53.00
2023-03-03T17:00:34.070Z,53.60
2023-03-03T17:03:41.930Z,54.10
2023-03-03T17:06:48.826Z,54.60
2023-03-03T17:09:51.557Z,55.30
2023-03-03T17:12:45.383Z,55.60
2023-03-03T17:15:39.321Z,56.30
2023-03-03T17:18:45.193Z,56.70
2023-03-03T17:22:18.179Z,57.20
2023-03-03T17:25:22.778Z,57.80
2023-03-03T17:28:30.253Z,58.40
2023-03-03T17:31:28.990Z,59.30
2023-03-03T17:34:20.870Z,59.50
2023-03-03T17:37:43.675Z,60.00
2023-03-03T17:40:57.711Z,60.20
2023-03-03T17:44:16.276Z,60.90
2023-03-03T17:46:59.049Z,61.50
2023-03-03T17:50:08.268Z,62.20
2023-03-03T17:53:07.290Z,62.50
2023-03-03T17:56:13.788Z,63.00
2023-03-03T17:58:56.501Z,63.50
2023-03-03T18:02:26.330Z,63.90
2023-03-03T18:05:23.959Z,64.50
2023-03-03T18:08:47.883Z,65.10
2023-03-03T18:11:50.155Z,65.70
2023-03-03T18:14:40.042Z,65.90
2023-03-03T18:18:16.835Z,66.50
2023-03-03T18:21:20.929Z,66.60
2023-03-03T18:23:50.217Z,66.90
2023-03-03T18:26:38.835Z,67.00
2023-03-03T18:29:18.046Z,67.20
2023-03-03T18:32:21.535Z,67.70
2023-03-03T18:34:48.525Z,67.90
2023-03-03T18:37:30.272Z,68.10
2023-03-03T18:40:03.083Z,68.40
2023-03-03T18:42:43.759Z,68.40
2023-03-03T18:45:19.865Z,68.50
2023-03-03T18:48:13.212Z,68.70
2023-03-03T18:50:52.288Z,68.90
2023-03-03T18:53:30.921Z,69.10
2023-03-03T18:56:03.008Z,69.30
2023-03-03T18:58:42.509Z,69.70
2023-03-03T19:01:29.239Z,70.60
2023-03-03T19:04:18.392Z,70.70
2023-03-03T19:06:48.186Z,71.20
2023-03-03T19:10:01.479Z,71.50
2023-03-03T19:12:51.825Z,71.80
2023-03-03T19:15:31.173Z,72.10
2023-03-03T19:18:28.071Z,72.80
2023-03-03T19:21:21.356Z,73.00
2023-03-03T19:24:00.331Z,73.30
2023-03-03T19:26:30.260Z,74.00
2023-03-03T19:29:53.224Z,74.70
2023-03-03T19:33:17.528Z,75.50
2023-03-03T19:36:19.183Z,75.70
2023-03-03T19:39:36.093Z,76.40
2023-03-03T19:42:55.440Z,77.40
2023-03-03T19:46:02.897Z,78.40
2023-03-03T19:48:40.041Z,79.50
2023-03-03T19:51:47.681Z,80.10
2023-03-03T19:54:56.858Z,81.20
2023-03-03T19:57:49.869Z,82.40
2023-03-03T20:00:34.447Z,83.30
2023-03-03T20:03:45.810Z,84.10
2023-03-03T20:07:31.170Z,84.30
2023-03-03T20:10:29.970Z,84.70
2023-03-03T20:14:11.940Z,85.60
2023-03-03T20:16:48.185Z,86.40
2023-03-03T20:19:45.669Z,87.20
2023-03-03T20:22:52.815Z,88.10
2023-03-03T20:25:48.848Z,89.00
2023-03-03T20:29:16.164Z,89.90
2023-03-03T20:32:16.949Z,90.20
2023-03-03T20:35:52.725Z,90.80
2023-03-03T20:38:39.005Z,91.20
2023-03-03T20:41:23.552Z,92.00
2023-03-03T20:44:32.764Z,92.20
2023-03-03T20:47:54.278Z,92.10
2023-03-03T20:50:49.604Z,92.10
2023-03-03T20:54:32.728Z,92.70
2023-03-03T20:57:33.785Z,93.30
2023-03-03T21:00:38.865Z,93.50
2023-03-03T21:03:42.987Z,94.40
2023-03-03T21:06:17.675Z,94.90
2023-03-03T21:08:53.781Z,94.70
2023-03-03T21:11:42.095Z,94.30
2023-03-03T21:14:38.441Z,94.30
2023-03-03T21:17:28.691Z,94.50
2023-03-03T21:19:55.993Z,94.70
2023-03-03T21:22:23.722Z,94.90
2023-03-03T21:25:01.134Z,95.50
2023-03-03T21:27:34.373Z,96.00
2023-03-03T21:30:16.532Z,96.30
2023-03-03T21:32:48.990Z,96.60
2023-03-03T21:35:23.501Z,96.90
2023-03-03T21:37:57.658Z,97.00
2023-03-03T21:40:29.515Z,97.10
2023-03-03T21:42:59.893Z,97.00
2023-03-03T21:45:27.373Z,97.10
2023-03-03T21:47:55.021Z,97.60
2023-03-03T21:50:22.097Z,97.80
2023-03-03T21:52:50.036Z,97.60
2023-03-03T21:55:17.041Z,97.50
2023-03-03T21:57:43.890Z,97.30
2023-03-03T22:00:12.078Z,97.20
2023-03-03T22:02:38.941Z,97.10
2023-03-03T22:05:07.663Z,97.30
2023-03-03T22:07:34.803Z,97.70
2023-03-03T22:10:01.832Z,98.20
2023-03-03T22:12:28.763Z,98.30
2023-03-03T22:14:55.684Z,98.60
2023-03-03T22:17:25.365Z,98.60
2023-03-03T22:19:52.839Z,98.20
2023-03-03T22:22:19.708Z,97.80
2023-03-03T22:24:46.576Z,97.60
2023-03-03T22:27:14.282Z,97.60
2023-03-03T22:29:41.353Z,97.70
2023-03-03T22:32:08.332Z,97.70
2023-03-03T22:34:35.362Z,97.90
2023-03-03T22:37:02.287Z,98.10
2023-03-03T22:39:29.196Z,98.50
2023-03-03T22:41:56.140Z,98.80
2023-03-03T22:44:23.015Z,98.90
2023-03-03T22:46:49.856Z,99.20
2023-03-03T22:49:16.726Z,99.40
2023-03-03T22:51:43.705Z,99.50
2023-03-03T22:54:10.597Z,99.40
2023-03-03T22:56:37.470Z,99.40
2023-03-03T22:59:04.450Z,99.40
2023-03-03T23:01:31.331Z,99.20
2023-03-03T23:03:58.246Z,99.10
2023-03-03T23:06:25.100Z,99.40
2023-03-03T23:08:52.145Z,99.60
2023-03-03T23:11:19.059Z,99.60
2023-03-03T23:13:45.962Z,99.70
2023-03-03T23:16:12.852Z,99.80
2023-03-03T23:18:39.806Z,99.90
2023-03-03T23:21:06.793Z,99.90
2023-03-03T23:23:34.044Z,99.90
2023-03-03T23:26:01.012Z,99.90
2023-03-03T23:28:27.879Z,99.90
2023-03-03T23:30:54.820Z,99.90
2023-03-03T23:33:21.769Z,99.80
2023-03-03T23:35:49.740Z,99.90
2023-03-03T23:38:17.576Z,99.90
2023-03-03T23:40:46.658Z,99.90
2023-03-03T23:43:14.833Z,99.90
2023-03-03T23:45:41.823Z,99.90
2023-03-03T23:48:09.065Z,99.90
2023-03-03T23:50:39.200Z,99.90
2023-03-03T23:53:07.727Z,99.90
2023-03-03T23:55:36.212Z,99.90
2023-03-03T23:58:04.394Z,99.90
